This is the latest recevied weather packets stored in our database for station/object KG4K-13. If no packets are shown the sender has not sent any weather packets the latest 10 day(s).
| Time | Temp. | Humidity | Pressure | Rain* | Wind** | Luminosity | Snow |
|---|---|---|---|---|---|---|---|
| 1777982720 | 18.33° C | 60% | 1012.8 hPa | 0 mm | - | 60 W/m² | - |
| 1777965325 | 15.56° C | 79% | 1011.7 hPa | 0 mm | - | 0 W/m² | - |
| 1777964125 | 15.56° C | 82% | 1011.7 hPa | 0 mm | - | 0 W/m² | - |
| 1777963525 | 15.56° C | 81% | 1011.7 hPa | 0 mm | - | 0 W/m² | - |
| 1777962925 | 15.56° C | 82% | 1011.7 hPa | 0 mm | - | 0 W/m² | - |
| 1777961126 | 15° C | 87% | 1011.7 hPa | 0 mm | - | 0 W/m² | - |
| 1777960526 | 15° C | 88% | 1011.8 hPa | 0 mm | - | 0 W/m² | - |
| 1777959926 | 15° C | 87% | 1011.7 hPa | 0 mm | - | 0 W/m² | - |
| 1777959326 | 15° C | 86% | 1011.7 hPa | 0 mm | - | 0 W/m² | - |
| 1777952718 | 16.11° C | 83% | 1011.6 hPa | 0 mm | - | 0 W/m² | - |
| 1777952118 | 16.11° C | 82% | 1011.6 hPa | 0 mm | - | 0 W/m² | - |
| 1777941918 | 17.78° C | 67% | 1011 hPa | 0 mm | - | 0 W/m² | - |
| 1777933558 | 21.11° C | 56% | 1010.9 hPa | 0 mm | - | 156 W/m² | - |
| 1777926337 | 22.22° C | 51% | 1011.3 hPa | 0 mm | - | 451 W/m² | - |
| 1777921558 | 23.33° C | 47% | 1012.3 hPa | 0 mm | - | 851 W/m² | - |
| 1777920318 | 22.78° C | 49% | 1012.7 hPa | 0 mm | - | 594 W/m² | - |
| 1777919116 | 22.78° C | 48% | 1012.9 hPa | 0 mm | - | 918 W/m² | - |
| 1777916716 | 22.78° C | 44% | 1013.4 hPa | 0 mm | - | 958 W/m² | - |
| 1777915517 | 22.78° C | 46% | 1013.7 hPa | 0 mm | - | 969 W/m² | - |
| 1777913717 | 21.67° C | 49% | 1013.8 hPa | 0 mm | - | 964 W/m² | - |
| 1777905316 | 19.44° C | 49% | 1015 hPa | 0 mm | - | 733 W/m² | - |
| 1777904137 | 18.89° C | 47% | 1015 hPa | 0 mm | - | 676 W/m² | - |
| 1777898116 | 14.44° C | 54% | 1015.5 hPa | 0 mm | - | 57 W/m² | - |
| 1777894516 | 12.22° C | 59% | 1015.7 hPa | 0 mm | - | 40 W/m² | - |
| 1777887318 | 12.22° C | 62% | 1015.9 hPa | 0 mm | - | 0 W/m² | - |
* Rain latest hour (hover to see other rain measurements)
** Current wind speed in m/s (hover to see current wind gust speed)